sensor_id;sensor_type;location;lat;lon;timestamp;temperature;humidity
31979;DHT22;18502;43.574;1.276;2023-08-17T00:00:19;22.40;99.90
31979;DHT22;18502;43.574;1.276;2023-08-17T00:02:45;22.30;99.90
31979;DHT22;18502;43.574;1.276;2023-08-17T00:05:11;22.30;99.90
31979;DHT22;18502;43.574;1.276;2023-08-17T00:07:36;22.20;99.90
31979;DHT22;18502;43.574;1.276;2023-08-17T00:10:03;22.10;99.90
31979;DHT22;18502;43.574;1.276;2023-08-17T00:12:29;22.10;99.90
31979;DHT22;18502;43.574;1.276;2023-08-17T00:14:54;22.20;99.90
31979;DHT22;18502;43.574;1.276;2023-08-17T00:17:20;22.10;99.90
31979;DHT22;18502;43.574;1.276;2023-08-17T00:19:46;22.20;99.90
31979;DHT22;18502;43.574;1.276;2023-08-17T00:22:12;22.20;99.90
31979;DHT22;18502;43.574;1.276;2023-08-17T00:24:38;22.20;99.90
31979;DHT22;18502;43.574;1.276;2023-08-17T00:27:04;22.10;99.90
31979;DHT22;18502;43.574;1.276;2023-08-17T00:29:30;22.00;99.90
31979;DHT22;18502;43.574;1.276;2023-08-17T00:31:55;21.90;99.90
31979;DHT22;18502;43.574;1.276;2023-08-17T00:34:21;21.90;99.90
31979;DHT22;18502;43.574;1.276;2023-08-17T00:36:47;21.90;99.90
31979;DHT22;18502;43.574;1.276;2023-08-17T00:39:13;22.10;99.90
31979;DHT22;18502;43.574;1.276;2023-08-17T00:41:40;22.10;99.90
31979;DHT22;18502;43.574;1.276;2023-08-17T00:44:06;22.10;99.90
31979;DHT22;18502;43.574;1.276;2023-08-17T00:46:31;22.00;99.90
31979;DHT22;18502;43.574;1.276;2023-08-17T00:48:58;22.00;99.90
31979;DHT22;18502;43.574;1.276;2023-08-17T00:51:24;22.00;99.90
31979;DHT22;18502;43.574;1.276;2023-08-17T00:53:53;21.90;99.90
31979;DHT22;18502;43.574;1.276;2023-08-17T00:56:21;21.90;99.90
31979;DHT22;18502;43.574;1.276;2023-08-17T00:58:46;21.90;99.90
31979;DHT22;18502;43.574;1.276;2023-08-17T01:01:12;21.70;99.90
31979;DHT22;18502;43.574;1.276;2023-08-17T01:03:39;21.80;99.90
31979;DHT22;18502;43.574;1.276;2023-08-17T01:06:06;21.80;99.90
31979;DHT22;18502;43.574;1.276;2023-08-17T01:08:31;21.80;99.90
31979;DHT22;18502;43.574;1.276;2023-08-17T01:14:01;21.70;99.90
31979;DHT22;18502;43.574;1.276;2023-08-17T01:16:36;21.70;99.90
31979;DHT22;18502;43.574;1.276;2023-08-17T01:19:07;21.70;99.90
31979;DHT22;18502;43.574;1.276;2023-08-17T01:21:41;21.70;99.90
31979;DHT22;18502;43.574;1.276;2023-08-17T01:24:11;21.80;99.90
31979;DHT22;18502;43.574;1.276;2023-08-17T01:26:37;21.80;99.90
31979;DHT22;18502;43.574;1.276;2023-08-17T01:29:03;21.80;99.90
31979;DHT22;18502;43.574;1.276;2023-08-17T01:31:36;21.80;99.90
31979;DHT22;18502;43.574;1.276;2023-08-17T01:34:09;21.80;99.90
31979;DHT22;18502;43.574;1.276;2023-08-17T01:36:46;21.80;99.90
31979;DHT22;18502;43.574;1.276;2023-08-17T01:39:13;21.80;99.90
31979;DHT22;18502;43.574;1.276;2023-08-17T01:41:41;21.80;99.90
31979;DHT22;18502;43.574;1.276;2023-08-17T01:44:07;21.70;99.90
31979;DHT22;18502;43.574;1.276;2023-08-17T01:46:33;21.70;99.90
31979;DHT22;18502;43.574;1.276;2023-08-17T01:48:59;21.60;99.90
31979;DHT22;18502;43.574;1.276;2023-08-17T01:51:25;21.50;99.90
31979;DHT22;18502;43.574;1.276;2023-08-17T01:53:51;21.40;99.90
31979;DHT22;18502;43.574;1.276;2023-08-17T01:56:17;21.50;99.90
31979;DHT22;18502;43.574;1.276;2023-08-17T01:58:43;21.50;99.90
31979;DHT22;18502;43.574;1.276;2023-08-17T02:01:09;21.50;99.90
31979;DHT22;18502;43.574;1.276;2023-08-17T02:03:34;21.60;99.90
31979;DHT22;18502;43.574;1.276;2023-08-17T02:06:00;21.60;99.90
31979;DHT22;18502;43.574;1.276;2023-08-17T02:08:26;21.50;99.90
31979;DHT22;18502;43.574;1.276;2023-08-17T02:10:52;21.50;99.90
31979;DHT22;18502;43.574;1.276;2023-08-17T02:13:18;21.50;99.90
31979;DHT22;18502;43.574;1.276;2023-08-17T02:15:44;21.50;99.90
31979;DHT22;18502;43.574;1.276;2023-08-17T02:18:10;21.40;99.90
31979;DHT22;18502;43.574;1.276;2023-08-17T02:20:36;21.40;99.90
31979;DHT22;18502;43.574;1.276;2023-08-17T02:23:01;21.40;99.90
31979;DHT22;18502;43.574;1.276;2023-08-17T02:25:27;21.40;99.90
31979;DHT22;18502;43.574;1.276;2023-08-17T02:28:03;21.30;99.90
31979;DHT22;18502;43.574;1.276;2023-08-17T02:30:29;21.30;99.90
31979;DHT22;18502;43.574;1.276;2023-08-17T02:32:54;21.20;99.90
31979;DHT22;18502;43.574;1.276;2023-08-17T02:35:20;21.10;99.90
31979;DHT22;18502;43.574;1.276;2023-08-17T02:37:46;21.10;99.90
31979;DHT22;18502;43.574;1.276;2023-08-17T02:40:11;21.00;99.90
31979;DHT22;18502;43.574;1.276;2023-08-17T02:42:37;20.90;99.90
31979;DHT22;18502;43.574;1.276;2023-08-17T02:45:08;20.90;99.90
31979;DHT22;18502;43.574;1.276;2023-08-17T02:47:33;20.90;99.90
31979;DHT22;18502;43.574;1.276;2023-08-17T02:49:59;20.90;99.90
31979;DHT22;18502;43.574;1.276;2023-08-17T02:52:25;20.90;99.90
31979;DHT22;18502;43.574;1.276;2023-08-17T02:54:50;20.80;99.90
31979;DHT22;18502;43.574;1.276;2023-08-17T02:57:16;20.80;99.90
31979;DHT22;18502;43.574;1.276;2023-08-17T02:59:43;20.90;99.90
31979;DHT22;18502;43.574;1.276;2023-08-17T03:02:08;20.90;99.90
31979;DHT22;18502;43.574;1.276;2023-08-17T03:04:34;21.00;99.90
31979;DHT22;18502;43.574;1.276;2023-08-17T03:07:00;21.00;99.90
31979;DHT22;18502;43.574;1.276;2023-08-17T03:09:25;21.00;99.90
31979;DHT22;18502;43.574;1.276;2023-08-17T03:11:51;21.00;99.90
31979;DHT22;18502;43.574;1.276;2023-08-17T03:14:17;21.00;99.90
31979;DHT22;18502;43.574;1.276;2023-08-17T03:16:43;21.00;99.90
31979;DHT22;18502;43.574;1.276;2023-08-17T03:19:08;21.00;99.90
31979;DHT22;18502;43.574;1.276;2023-08-17T03:21:36;21.10;99.90
31979;DHT22;18502;43.574;1.276;2023-08-17T03:24:02;21.10;99.90
31979;DHT22;18502;43.574;1.276;2023-08-17T03:26:28;21.20;99.90
31979;DHT22;18502;43.574;1.276;2023-08-17T03:28:54;21.20;99.90
31979;DHT22;18502;43.574;1.276;2023-08-17T03:31:22;21.30;99.90
31979;DHT22;18502;43.574;1.276;2023-08-17T03:33:48;21.40;99.90
31979;DHT22;18502;43.574;1.276;2023-08-17T03:36:14;21.40;99.90
31979;DHT22;18502;43.574;1.276;2023-08-17T03:38:40;21.40;99.90
31979;DHT22;18502;43.574;1.276;2023-08-17T03:41:07;21.40;99.90
31979;DHT22;18502;43.574;1.276;2023-08-17T03:43:32;21.40;99.90
31979;DHT22;18502;43.574;1.276;2023-08-17T03:45:58;21.20;99.90
31979;DHT22;18502;43.574;1.276;2023-08-17T03:48:24;21.20;99.90
31979;DHT22;18502;43.574;1.276;2023-08-17T03:50:54;21.10;99.90
31979;DHT22;18502;43.574;1.276;2023-08-17T03:53:20;20.90;99.90
31979;DHT22;18502;43.574;1.276;2023-08-17T03:55:47;20.80;99.90
31979;DHT22;18502;43.574;1.276;2023-08-17T03:58:13;20.80;99.90
31979;DHT22;18502;43.574;1.276;2023-08-17T04:00:38;20.80;99.90
31979;DHT22;18502;43.574;1.276;2023-08-17T04:03:06;20.80;99.90
31979;DHT22;18502;43.574;1.276;2023-08-17T04:05:32;20.60;99.90
31979;DHT22;18502;43.574;1.276;2023-08-17T04:07:59;20.60;99.90
31979;DHT22;18502;43.574;1.276;2023-08-17T04:10:28;20.60;99.90
31979;DHT22;18502;43.574;1.276;2023-08-17T04:12:54;20.50;99.90
31979;DHT22;18502;43.574;1.276;2023-08-17T04:15:19;20.50;99.90
31979;DHT22;18502;43.574;1.276;2023-08-17T04:17:45;20.40;99.90
31979;DHT22;18502;43.574;1.276;2023-08-17T04:20:11;20.40;99.90
31979;DHT22;18502;43.574;1.276;2023-08-17T04:22:37;20.40;99.90
31979;DHT22;18502;43.574;1.276;2023-08-17T04:25:02;20.40;99.90
31979;DHT22;18502;43.574;1.276;2023-08-17T04:27:28;20.40;99.90
31979;DHT22;18502;43.574;1.276;2023-08-17T04:29:54;20.40;99.90
31979;DHT22;18502;43.574;1.276;2023-08-17T04:32:19;20.30;99.90
31979;DHT22;18502;43.574;1.276;2023-08-17T04:34:45;20.30;99.90
31979;DHT22;18502;43.574;1.276;2023-08-17T04:37:11;20.30;99.90
31979;DHT22;18502;43.574;1.276;2023-08-17T04:39:37;20.30;99.90
31979;DHT22;18502;43.574;1.276;2023-08-17T04:42:03;20.30;99.90
31979;DHT22;18502;43.574;1.276;2023-08-17T04:44:29;20.30;99.90
31979;DHT22;18502;43.574;1.276;2023-08-17T04:46:55;20.30;99.90
31979;DHT22;18502;43.574;1.276;2023-08-17T04:49:21;20.30;99.90
31979;DHT22;18502;43.574;1.276;2023-08-17T04:51:46;20.20;99.90
31979;DHT22;18502;43.574;1.276;2023-08-17T04:54:12;20.20;99.90
31979;DHT22;18502;43.574;1.276;2023-08-17T04:56:38;20.10;99.90
31979;DHT22;18502;43.574;1.276;2023-08-17T04:59:04;20.10;99.90
31979;DHT22;18502;43.574;1.276;2023-08-17T05:01:29;20.00;99.90
31979;DHT22;18502;43.574;1.276;2023-08-17T05:03:55;20.10;99.90
31979;DHT22;18502;43.574;1.276;2023-08-17T05:06:21;20.00;99.90
31979;DHT22;18502;43.574;1.276;2023-08-17T05:08:46;19.90;99.90
31979;DHT22;18502;43.574;1.276;2023-08-17T05:11:12;19.90;99.90
31979;DHT22;18502;43.574;1.276;2023-08-17T05:13:38;19.90;99.90
31979;DHT22;18502;43.574;1.276;2023-08-17T05:16:04;19.90;99.90
31979;DHT22;18502;43.574;1.276;2023-08-17T05:18:30;19.90;99.90
31979;DHT22;18502;43.574;1.276;2023-08-17T05:20:56;19.90;99.90
31979;DHT22;18502;43.574;1.276;2023-08-17T05:23:21;20.20;99.90
31979;DHT22;18502;43.574;1.276;2023-08-17T05:25:47;20.50;99.90
31979;DHT22;18502;43.574;1.276;2023-08-17T05:28:13;20.40;99.90
31979;DHT22;18502;43.574;1.276;2023-08-17T05:30:39;20.60;99.90
31979;DHT22;18502;43.574;1.276;2023-08-17T05:33:05;20.60;99.90
31979;DHT22;18502;43.574;1.276;2023-08-17T05:35:31;20.70;99.90
31979;DHT22;18502;43.574;1.276;2023-08-17T05:37:57;21.00;99.90
31979;DHT22;18502;43.574;1.276;2023-08-17T05:40:22;21.10;99.90
31979;DHT22;18502;43.574;1.276;2023-08-17T05:42:48;21.00;99.90
31979;DHT22;18502;43.574;1.276;2023-08-17T05:45:14;21.10;99.90
31979;DHT22;18502;43.574;1.276;2023-08-17T05:47:39;21.30;99.90
31979;DHT22;18502;43.574;1.276;2023-08-17T05:50:05;21.40;99.90
31979;DHT22;18502;43.574;1.276;2023-08-17T05:52:31;21.50;99.90
31979;DHT22;18502;43.574;1.276;2023-08-17T05:54:57;21.50;99.90
31979;DHT22;18502;43.574;1.276;2023-08-17T05:57:23;21.80;99.90
31979;DHT22;18502;43.574;1.276;2023-08-17T05:59:49;21.80;99.90
31979;DHT22;18502;43.574;1.276;2023-08-17T06:02:14;22.00;99.90
31979;DHT22;18502;43.574;1.276;2023-08-17T06:04:40;22.00;99.90
31979;DHT22;18502;43.574;1.276;2023-08-17T06:07:06;22.00;99.90
31979;DHT22;18502;43.574;1.276;2023-08-17T06:09:32;21.90;99.90
31979;DHT22;18502;43.574;1.276;2023-08-17T06:11:57;21.80;99.90
31979;DHT22;18502;43.574;1.276;2023-08-17T06:14:23;21.80;99.90
31979;DHT22;18502;43.574;1.276;2023-08-17T06:16:49;21.50;99.90
31979;DHT22;18502;43.574;1.276;2023-08-17T06:19:14;21.70;99.90
31979;DHT22;18502;43.574;1.276;2023-08-17T06:21:40;21.70;99.90
31979;DHT22;18502;43.574;1.276;2023-08-17T06:24:06;22.00;99.90
31979;DHT22;18502;43.574;1.276;2023-08-17T06:26:31;21.90;99.90
31979;DHT22;18502;43.574;1.276;2023-08-17T06:28:57;22.00;99.90
31979;DHT22;18502;43.574;1.276;2023-08-17T06:31:23;22.20;99.90
31979;DHT22;18502;43.574;1.276;2023-08-17T06:33:53;22.30;99.90
31979;DHT22;18502;43.574;1.276;2023-08-17T06:36:19;22.40;99.90
31979;DHT22;18502;43.574;1.276;2023-08-17T06:38:44;22.50;99.90
31979;DHT22;18502;43.574;1.276;2023-08-17T06:41:10;22.50;99.90
31979;DHT22;18502;43.574;1.276;2023-08-17T06:43:36;22.60;99.90
31979;DHT22;18502;43.574;1.276;2023-08-17T06:46:01;22.60;99.90
31979;DHT22;18502;43.574;1.276;2023-08-17T06:48:28;22.90;99.90
31979;DHT22;18502;43.574;1.276;2023-08-17T06:50:54;23.10;99.90
31979;DHT22;18502;43.574;1.276;2023-08-17T06:53:19;23.20;99.90
31979;DHT22;18502;43.574;1.276;2023-08-17T06:55:45;23.20;99.90
31979;DHT22;18502;43.574;1.276;2023-08-17T06:58:11;23.30;99.90
31979;DHT22;18502;43.574;1.276;2023-08-17T07:00:36;23.30;99.90
31979;DHT22;18502;43.574;1.276;2023-08-17T07:03:04;23.30;99.90
31979;DHT22;18502;43.574;1.276;2023-08-17T07:05:30;23.20;99.90
31979;DHT22;18502;43.574;1.276;2023-08-17T07:07:55;23.20;99.90
31979;DHT22;18502;43.574;1.276;2023-08-17T07:10:22;23.30;99.90
31979;DHT22;18502;43.574;1.276;2023-08-17T07:12:48;23.30;99.90
31979;DHT22;18502;43.574;1.276;2023-08-17T07:15:14;23.20;99.90
31979;DHT22;18502;43.574;1.276;2023-08-17T07:17:40;23.30;99.90
31979;DHT22;18502;43.574;1.276;2023-08-17T07:20:06;23.40;99.90
31979;DHT22;18502;43.574;1.276;2023-08-17T07:22:36;23.60;99.90
31979;DHT22;18502;43.574;1.276;2023-08-17T07:25:02;23.70;99.90
31979;DHT22;18502;43.574;1.276;2023-08-17T07:27:29;23.90;99.90
31979;DHT22;18502;43.574;1.276;2023-08-17T07:29:55;24.00;99.90
31979;DHT22;18502;43.574;1.276;2023-08-17T07:32:21;24.10;99.90
31979;DHT22;18502;43.574;1.276;2023-08-17T07:34:47;24.10;99.90
31979;DHT22;18502;43.574;1.276;2023-08-17T07:37:13;24.10;99.90
31979;DHT22;18502;43.574;1.276;2023-08-17T07:39:39;24.30;99.90
31979;DHT22;18502;43.574;1.276;2023-08-17T07:42:04;24.20;99.90
31979;DHT22;18502;43.574;1.276;2023-08-17T07:44:30;24.50;99.90
31979;DHT22;18502;43.574;1.276;2023-08-17T07:47:00;24.60;99.90
31979;DHT22;18502;43.574;1.276;2023-08-17T07:49:27;24.60;99.90
31979;DHT22;18502;43.574;1.276;2023-08-17T07:51:53;24.70;99.90
31979;DHT22;18502;43.574;1.276;2023-08-17T07:54:19;24.90;99.90
31979;DHT22;18502;43.574;1.276;2023-08-17T07:56:44;24.90;99.90
31979;DHT22;18502;43.574;1.276;2023-08-17T07:59:10;25.30;99.90
31979;DHT22;18502;43.574;1.276;2023-08-17T08:01:36;25.40;99.90
31979;DHT22;18502;43.574;1.276;2023-08-17T08:04:02;25.10;99.90
31979;DHT22;18502;43.574;1.276;2023-08-17T08:06:27;25.40;99.90
31979;DHT22;18502;43.574;1.276;2023-08-17T08:08:53;25.90;99.90
31979;DHT22;18502;43.574;1.276;2023-08-17T08:11:21;26.10;99.90
31979;DHT22;18502;43.574;1.276;2023-08-17T08:13:47;26.10;99.90
31979;DHT22;18502;43.574;1.276;2023-08-17T08:16:13;26.00;99.90
31979;DHT22;18502;43.574;1.276;2023-08-17T08:18:38;25.70;99.90
31979;DHT22;18502;43.574;1.276;2023-08-17T08:21:04;25.00;99.90
31979;DHT22;18502;43.574;1.276;2023-08-17T08:23:29;25.10;99.90
31979;DHT22;18502;43.574;1.276;2023-08-17T08:25:55;25.20;99.90
31979;DHT22;18502;43.574;1.276;2023-08-17T08:28:21;25.40;99.90
31979;DHT22;18502;43.574;1.276;2023-08-17T08:30:46;25.00;99.90
31979;DHT22;18502;43.574;1.276;2023-08-17T08:33:12;24.80;99.90
31979;DHT22;18502;43.574;1.276;2023-08-17T08:35:38;25.20;99.90
31979;DHT22;18502;43.574;1.276;2023-08-17T08:38:04;25.20;99.90
31979;DHT22;18502;43.574;1.276;2023-08-17T08:40:30;24.90;99.90
31979;DHT22;18502;43.574;1.276;2023-08-17T08:42:59;25.10;99.90
31979;DHT22;18502;43.574;1.276;2023-08-17T08:45:25;25.70;99.90
31979;DHT22;18502;43.574;1.276;2023-08-17T08:47:53;25.30;99.90
31979;DHT22;18502;43.574;1.276;2023-08-17T08:50:20;25.30;99.90
31979;DHT22;18502;43.574;1.276;2023-08-17T08:55:23;25.30;99.90
31979;DHT22;18502;43.574;1.276;2023-08-17T08:57:49;25.10;99.90
31979;DHT22;18502;43.574;1.276;2023-08-17T09:00:16;25.40;99.90
31979;DHT22;18502;43.574;1.276;2023-08-17T09:02:42;25.70;99.90
31979;DHT22;18502;43.574;1.276;2023-08-17T09:05:12;25.90;99.90
31979;DHT22;18502;43.574;1.276;2023-08-17T09:07:39;26.00;99.90
31979;DHT22;18502;43.574;1.276;2023-08-17T09:10:05;26.60;99.90
31979;DHT22;18502;43.574;1.276;2023-08-17T09:12:31;26.40;99.90
31979;DHT22;18502;43.574;1.276;2023-08-17T09:14:56;26.30;99.90
31979;DHT22;18502;43.574;1.276;2023-08-17T09:17:25;26.70;99.90
31979;DHT22;18502;43.574;1.276;2023-08-17T09:19:51;26.50;99.90
31979;DHT22;18502;43.574;1.276;2023-08-17T09:22:25;26.70;99.90
31979;DHT22;18502;43.574;1.276;2023-08-17T09:24:51;26.80;99.90
31979;DHT22;18502;43.574;1.276;2023-08-17T09:27:17;26.80;99.90
31979;DHT22;18502;43.574;1.276;2023-08-17T09:29:43;27.10;99.90
31979;DHT22;18502;43.574;1.276;2023-08-17T09:32:11;27.00;99.90
31979;DHT22;18502;43.574;1.276;2023-08-17T09:34:41;27.70;99.90
31979;DHT22;18502;43.574;1.276;2023-08-17T09:37:08;28.30;99.90
31979;DHT22;18502;43.574;1.276;2023-08-17T09:39:33;28.60;99.90
31979;DHT22;18502;43.574;1.276;2023-08-17T09:41:59;27.90;99.90
31979;DHT22;18502;43.574;1.276;2023-08-17T09:44:28;28.30;99.90
31979;DHT22;18502;43.574;1.276;2023-08-17T09:46:57;28.40;99.90
31979;DHT22;18502;43.574;1.276;2023-08-17T09:49:24;28.00;99.90
31979;DHT22;18502;43.574;1.276;2023-08-17T09:51:50;27.80;99.90
31979;DHT22;18502;43.574;1.276;2023-08-17T09:54:24;28.50;99.90
31979;DHT22;18502;43.574;1.276;2023-08-17T09:56:53;28.90;99.90
31979;DHT22;18502;43.574;1.276;2023-08-17T09:59:19;29.30;99.90
31979;DHT22;18502;43.574;1.276;2023-08-17T10:01:48;29.10;99.90
31979;DHT22;18502;43.574;1.276;2023-08-17T10:04:18;29.20;99.90
31979;DHT22;18502;43.574;1.276;2023-08-17T10:06:48;28.60;99.90
31979;DHT22;18502;43.574;1.276;2023-08-17T10:09:15;29.00;99.90
31979;DHT22;18502;43.574;1.276;2023-08-17T10:11:43;29.20;99.90
31979;DHT22;18502;43.574;1.276;2023-08-17T10:14:18;29.20;99.90
31979;DHT22;18502;43.574;1.276;2023-08-17T10:16:50;29.10;99.90
31979;DHT22;18502;43.574;1.276;2023-08-17T10:19:43;29.40;99.90
31979;DHT22;18502;43.574;1.276;2023-08-17T10:22:15;30.20;99.90
31979;DHT22;18502;43.574;1.276;2023-08-17T10:24:42;30.40;99.90
31979;DHT22;18502;43.574;1.276;2023-08-17T10:27:09;30.50;99.90
31979;DHT22;18502;43.574;1.276;2023-08-17T10:29:36;30.50;99.90
31979;DHT22;18502;43.574;1.276;2023-08-17T10:32:05;30.20;99.90
31979;DHT22;18502;43.574;1.276;2023-08-17T10:34:33;29.60;99.90
31979;DHT22;18502;43.574;1.276;2023-08-17T10:37:00;29.30;99.90
31979;DHT22;18502;43.574;1.276;2023-08-17T10:39:29;29.30;99.90
31979;DHT22;18502;43.574;1.276;2023-08-17T10:41:56;29.40;99.90
31979;DHT22;18502;43.574;1.276;2023-08-17T10:44:55;30.10;99.90
31979;DHT22;18502;43.574;1.276;2023-08-17T10:47:25;30.60;99.90
31979;DHT22;18502;43.574;1.276;2023-08-17T10:49:52;30.40;99.90
31979;DHT22;18502;43.574;1.276;2023-08-17T10:52:33;30.60;99.90
31979;DHT22;18502;43.574;1.276;2023-08-17T10:55:05;30.90;99.90
31979;DHT22;18502;43.574;1.276;2023-08-17T10:57:41;31.80;99.90
31979;DHT22;18502;43.574;1.276;2023-08-17T11:02:58;32.80;99.90
31979;DHT22;18502;43.574;1.276;2023-08-17T11:11:08;35.90;99.90
31979;DHT22;18502;43.574;1.276;2023-08-17T11:13:39;36.60;99.90
31979;DHT22;18502;43.574;1.276;2023-08-17T11:16:06;38.60;99.90
31979;DHT22;18502;43.574;1.276;2023-08-17T11:18:33;39.40;99.90
31979;DHT22;18502;43.574;1.276;2023-08-17T11:21:01;39.50;99.90
31979;DHT22;18502;43.574;1.276;2023-08-17T11:23:29;40.40;99.90
31979;DHT22;18502;43.574;1.276;2023-08-17T11:25:55;40.80;99.90
31979;DHT22;18502;43.574;1.276;2023-08-17T11:28:22;39.60;99.90
31979;DHT22;18502;43.574;1.276;2023-08-17T11:30:57;36.60;99.90
31979;DHT22;18502;43.574;1.276;2023-08-17T11:33:30;37.90;99.90
31979;DHT22;18502;43.574;1.276;2023-08-17T11:36:00;39.00;99.90
31979;DHT22;18502;43.574;1.276;2023-08-17T11:38:30;41.10;99.20
31979;DHT22;18502;43.574;1.276;2023-08-17T11:40:58;39.50;98.10
31979;DHT22;18502;43.574;1.276;2023-08-17T11:43:25;41.10;98.50
31979;DHT22;18502;43.574;1.276;2023-08-17T11:45:51;40.30;96.70
31979;DHT22;18502;43.574;1.276;2023-08-17T11:48:19;41.00;96.00
31979;DHT22;18502;43.574;1.276;2023-08-17T11:50:45;42.90;94.80
31979;DHT22;18502;43.574;1.276;2023-08-17T11:53:11;42.10;93.70
31979;DHT22;18502;43.574;1.276;2023-08-17T11:55:37;41.40;94.10
31979;DHT22;18502;43.574;1.276;2023-08-17T11:58:03;39.80;95.50
31979;DHT22;18502;43.574;1.276;2023-08-17T12:00:35;38.50;96.30
31979;DHT22;18502;43.574;1.276;2023-08-17T12:03:01;39.80;95.50
31979;DHT22;18502;43.574;1.276;2023-08-17T12:05:31;41.70;94.70
31979;DHT22;18502;43.574;1.276;2023-08-17T12:07:57;42.40;94.00
31979;DHT22;18502;43.574;1.276;2023-08-17T12:10:23;41.20;94.00
31979;DHT22;18502;43.574;1.276;2023-08-17T12:12:49;41.40;93.40
31979;DHT22;18502;43.574;1.276;2023-08-17T12:15:18;41.70;93.70
31979;DHT22;18502;43.574;1.276;2023-08-17T12:17:45;41.50;94.40
31979;DHT22;18502;43.574;1.276;2023-08-17T12:20:19;41.00;93.90
31979;DHT22;18502;43.574;1.276;2023-08-17T12:22:46;43.10;93.20
31979;DHT22;18502;43.574;1.276;2023-08-17T12:25:12;44.30;91.90
31979;DHT22;18502;43.574;1.276;2023-08-17T12:27:37;45.90;90.30
31979;DHT22;18502;43.574;1.276;2023-08-17T12:30:04;45.90;88.80
31979;DHT22;18502;43.574;1.276;2023-08-17T12:32:29;42.00;90.80
31979;DHT22;18502;43.574;1.276;2023-08-17T12:34:55;41.70;90.90
31979;DHT22;18502;43.574;1.276;2023-08-17T12:37:21;41.10;89.70
31979;DHT22;18502;43.574;1.276;2023-08-17T12:39:48;40.00;91.30
31979;DHT22;18502;43.574;1.276;2023-08-17T12:42:14;41.00;90.40
31979;DHT22;18502;43.574;1.276;2023-08-17T12:44:40;41.30;90.50
31979;DHT22;18502;43.574;1.276;2023-08-17T12:47:06;41.30;90.40
31979;DHT22;18502;43.574;1.276;2023-08-17T12:49:32;40.00;90.30
31979;DHT22;18502;43.574;1.276;2023-08-17T12:51:58;39.00;91.10
31979;DHT22;18502;43.574;1.276;2023-08-17T12:54:23;39.80;91.00
31979;DHT22;18502;43.574;1.276;2023-08-17T12:56:49;42.50;90.20
31979;DHT22;18502;43.574;1.276;2023-08-17T12:59:14;41.60;87.80
31979;DHT22;18502;43.574;1.276;2023-08-17T13:01:40;40.20;90.00
31979;DHT22;18502;43.574;1.276;2023-08-17T13:04:07;41.80;89.10
31979;DHT22;18502;43.574;1.276;2023-08-17T13:06:33;39.70;88.90
31979;DHT22;18502;43.574;1.276;2023-08-17T13:08:58;39.10;88.90
31979;DHT22;18502;43.574;1.276;2023-08-17T13:11:24;40.20;88.80
31979;DHT22;18502;43.574;1.276;2023-08-17T13:13:49;41.80;87.30
31979;DHT22;18502;43.574;1.276;2023-08-17T13:16:15;42.40;86.30
31979;DHT22;18502;43.574;1.276;2023-08-17T13:18:41;42.10;85.10
31979;DHT22;18502;43.574;1.276;2023-08-17T13:21:07;44.50;83.00
31979;DHT22;18502;43.574;1.276;2023-08-17T13:23:32;44.90;81.20
31979;DHT22;18502;43.574;1.276;2023-08-17T13:25:58;46.10;81.50
31979;DHT22;18502;43.574;1.276;2023-08-17T13:28:24;45.40;79.50
31979;DHT22;18502;43.574;1.276;2023-08-17T13:30:50;42.50;81.90
31979;DHT22;18502;43.574;1.276;2023-08-17T13:33:15;42.70;82.70
31979;DHT22;18502;43.574;1.276;2023-08-17T13:35:44;44.60;81.20
31979;DHT22;18502;43.574;1.276;2023-08-17T13:38:10;44.70;81.50
31979;DHT22;18502;43.574;1.276;2023-08-17T13:40:36;43.60;80.80
31979;DHT22;18502;43.574;1.276;2023-08-17T13:43:04;41.20;82.80
31979;DHT22;18502;43.574;1.276;2023-08-17T13:45:33;40.40;84.10
31979;DHT22;18502;43.574;1.276;2023-08-17T13:47:59;41.60;83.00
31979;DHT22;18502;43.574;1.276;2023-08-17T13:50:25;42.40;82.40
31979;DHT22;18502;43.574;1.276;2023-08-17T13:52:51;40.80;83.70
31979;DHT22;18502;43.574;1.276;2023-08-17T13:55:17;41.00;83.90
31979;DHT22;18502;43.574;1.276;2023-08-17T13:57:42;40.60;83.70
31979;DHT22;18502;43.574;1.276;2023-08-17T14:00:08;39.90;84.00
31979;DHT22;18502;43.574;1.276;2023-08-17T14:02:34;40.30;85.20
31979;DHT22;18502;43.574;1.276;2023-08-17T14:05:00;40.70;84.30
31979;DHT22;18502;43.574;1.276;2023-08-17T14:07:26;40.80;83.90
31979;DHT22;18502;43.574;1.276;2023-08-17T14:09:51;41.30;82.80
31979;DHT22;18502;43.574;1.276;2023-08-17T14:12:17;40.50;83.60
31979;DHT22;18502;43.574;1.276;2023-08-17T14:14:42;40.30;84.10
31979;DHT22;18502;43.574;1.276;2023-08-17T14:17:08;40.30;84.60
31979;DHT22;18502;43.574;1.276;2023-08-17T14:19:34;39.00;85.70
31979;DHT22;18502;43.574;1.276;2023-08-17T14:21:59;39.90;85.40
31979;DHT22;18502;43.574;1.276;2023-08-17T14:24:27;38.60;86.30
31979;DHT22;18502;43.574;1.276;2023-08-17T14:26:52;37.80;87.50
31979;DHT22;18502;43.574;1.276;2023-08-17T14:29:18;36.90;89.30
31979;DHT22;18502;43.574;1.276;2023-08-17T14:31:44;38.10;88.70
31979;DHT22;18502;43.574;1.276;2023-08-17T14:34:10;39.70;87.60
31979;DHT22;18502;43.574;1.276;2023-08-17T14:36:35;39.50;85.80
31979;DHT22;18502;43.574;1.276;2023-08-17T14:39:01;38.00;88.00
31979;DHT22;18502;43.574;1.276;2023-08-17T14:41:27;37.50;88.80
31979;DHT22;18502;43.574;1.276;2023-08-17T14:43:58;39.70;87.10
31979;DHT22;18502;43.574;1.276;2023-08-17T14:46:25;40.90;85.10
31979;DHT22;18502;43.574;1.276;2023-08-17T14:48:50;40.50;84.00
31979;DHT22;18502;43.574;1.276;2023-08-17T14:51:16;40.00;84.70
31979;DHT22;18502;43.574;1.276;2023-08-17T14:53:42;39.80;84.40
31979;DHT22;18502;43.574;1.276;2023-08-17T14:56:07;38.20;87.00
31979;DHT22;18502;43.574;1.276;2023-08-17T14:58:33;38.40;87.70
31979;DHT22;18502;43.574;1.276;2023-08-17T15:00:58;39.40;85.90
31979;DHT22;18502;43.574;1.276;2023-08-17T15:03:24;40.10;85.30
31979;DHT22;18502;43.574;1.276;2023-08-17T15:05:50;40.80;84.40
31979;DHT22;18502;43.574;1.276;2023-08-17T15:08:15;40.80;83.90
31979;DHT22;18502;43.574;1.276;2023-08-17T15:10:42;40.60;85.30
31979;DHT22;18502;43.574;1.276;2023-08-17T15:13:07;41.40;84.70
31979;DHT22;18502;43.574;1.276;2023-08-17T15:15:33;43.00;84.00
31979;DHT22;18502;43.574;1.276;2023-08-17T15:17:59;42.10;82.90
31979;DHT22;18502;43.574;1.276;2023-08-17T15:20:24;40.60;83.10
31979;DHT22;18502;43.574;1.276;2023-08-17T15:22:50;39.80;83.90
31979;DHT22;18502;43.574;1.276;2023-08-17T15:25:16;39.10;85.20
31979;DHT22;18502;43.574;1.276;2023-08-17T15:27:41;39.00;84.20
31979;DHT22;18502;43.574;1.276;2023-08-17T15:30:07;38.10;86.30
31979;DHT22;18502;43.574;1.276;2023-08-17T15:32:33;38.10;86.80
31979;DHT22;18502;43.574;1.276;2023-08-17T15:34:59;39.30;85.80
31979;DHT22;18502;43.574;1.276;2023-08-17T15:37:25;39.40;85.70
31979;DHT22;18502;43.574;1.276;2023-08-17T15:39:50;38.10;87.20